Aeroporto :
LOGIN :

Iscrizione | Disclaimer

   EN    FR    IT 

 










Sommario :    VFR   VFR Marginale   IFR   IFR Intensivo   IFR Molto Intensivo
Visibilità : 
Base nubi : 
>= 8 km
>= 3000ft
5 / 8 km
1000 / 3000 ft
1500m / 5 km
500 / 1000 ft
800 / 1500m
200 / 500 ft
< 800m
< 200 ft
Simboli :   Temporali  Nebbia  Neve Forte  Precipitazioni Forti  Vento > 20 kt
SIGMETs :   Varie  Temporali  Ghiacco  Turbolenza  Onda orograficha  Ceneri Vulcaniche






- Altitudine del aeroporto : 427 ft
- Codice IATA : CIA


LIRA - Roma Ciampino

ULTIMO METAR :
  • 121920Z 12003KT 9999 BKN040 07/06 Q1004

METARs OBSOLETI :
  • 121850Z 14003KT 9999 BKN060 07/05 Q1004
  • 121820Z VRB02KT 9999 BKN060 07/05 Q1004
  • 121750Z 26004KT 9999 -RA BKN060 07/05 Q1004
  • 121720Z VRB02KT 9999 SCT060 07/04 Q1003
  • 121650Z VRB02KT 9999 SCT060 08/05 Q1003

TAF TAF LIRA
Valido dal 12 a 18 ore il 13 a 18 ore UTC


121700Z 1218/1318 VRB05KT 9999 SCT020
TEMPO 1303/1312 4000 SHRA
BECMG 1304/1306 15012KT



MetMap, La meteo Aeronautica in un colpo d'occhio ! - Copyright ORBIFLY Dicembre 2007 - Disclaimer

ORBIFLY MET'MAP TEAM :

Programmazione e sviluppo : Alexandra Zaïnal
Concezione : Baudouin d'Aumeries
Aiuto per la programmazione : Marc-Olivier Méhu
Supporto tecnico e logistico : Manuel Goepfert
Aiuto per la traduzione : Arnaldo La Scala

Contatto : metmap@orbifly.com




FONTI E CREDITI :

   NOAA